• Join FlightAware (Why Join?)
  • Login
  • US Flag 
11:14PM EDT


 

Airport Tracker/Info


-or-


 

Live Flight TrackerFlight Track Log ✈ GJS3707 ✈ 20-May-2013 ✈ KORD - KBOI

Flight Track Log - Related Links

Times and Time Zones

All times are in EDT time to prevent confusion due to time zone crossing. See the GJS3707 flight status page for this flight to view local times or setup timezone preferences in your user account.

Time Position Orientation Groundspeed Altitude Reporting Facility
EDT Latitude Longitude Course Direction KTS MPH feet Rate Location/Type
11:40AM 41.9667 -88.0000 270° West 191 220 3,100  Level Chicago TRACON
11:41AM 41.9667 -88.0833 270° West 226 260 4,700 1,740 Climbing Chicago TRACON
11:42AM 41.9667 -88.3745 270° West  Level FlightAware Approximate
11:43AM 41.9667 -88.5327 270° West  Level FlightAware Approximate
11:43AM 42.0078 -88.2361 290° West 262 302 8,300  Level Chicago Center
11:44AM 41.9667 -88.6909 270° West  Level FlightAware Approximate
11:44AM 42.0347 -88.3306 291° West 273 314 10,600  Level Chicago Center
11:45AM 41.9668 -88.8491 270° West  Level FlightAware Approximate
11:45AM 42.0394 -88.4486 273° West 267 307 12,700  Level Chicago Center
11:46AM 42.0414 -88.5600 271° West 294 338 13,800 1,500 Climbing Chicago Center
11:47AM 42.0425 -88.6814 271° West 323 372 15,800 1,860 Climbing Chicago Center
11:48AM 42.0478 -88.8000 273° West 321 369 17,700 1,620 Climbing Chicago Center
11:49AM 42.0531 -88.9236 273° West 330 380 19,200 1,560 Climbing Chicago Center
11:50AM 42.0583 -89.0775 273° West 346 398 21,000 1,500 Climbing Chicago Center
11:51AM 42.0628 -89.2089 273° West 353 406 22,300 1,200 Climbing Chicago Center
11:52AM 42.0653 -89.3483 271° West 373 429 23,500 960 Climbing Chicago Center
11:53AM 42.0897 -89.4875 283° West 394 453 24,400 960 Climbing Chicago Center
11:54AM 42.1258 -89.6333 289° West 408 470 25,500 960 Climbing Chicago Center
11:55AM 42.1575 -89.7831 286° West 413 475 26,400 1,020 Climbing Chicago Center
11:56AM 42.1806 -89.9592 280° West 414 476 27,600 960 Climbing Chicago Center
11:57AM 42.1869 -90.1144 273° West 418 481 28,500 900 Climbing Chicago Center
11:58AM 42.1972 -90.2686 275° West 416 479 29,500 720 Climbing Chicago Center
11:59AM 42.2075 -90.4286 275° West 427 491 30,000 420 Climbing Chicago Center
12:00PM 42.2178 -90.5925 275° West 439 505 30,500 540 Climbing Chicago Center
12:01PM 42.2325 -90.7928 276° West 450 518 31,200 600 Climbing Chicago Center
12:03PM 42.2461 -90.9625 276° West 457 526 31,800 660 Climbing Chicago Center
12:04PM 42.2614 -91.1356 277° West 467 537 32,600 540 Climbing Chicago Center
12:05PM 42.3086 -91.2981 291° West 471 542 33,000 180 Climbing Chicago Center
12:06PM 42.3722 -91.4569 298° West 481 554 33,000  Level Chicago Center
12:07PM 42.4364 -91.6169 299° West 482 555 33,000  Level Chicago Center
12:08PM 42.5003 -91.7792 298° West 486 559 33,000  Level Chicago Center
12:09PM 42.5767 -91.9750 298° West 487 560 33,000 240 Level Chicago Center
12:10PM 42.6406 -92.1383 298° West 488 562 33,600 480 Climbing Chicago Center
12:11PM 42.7044 -92.3047 298° West 489 563 34,000 180 Climbing Chicago Center
12:12PM 42.7664 -92.4669 298° West 493 567 34,000  Level Chicago Center
12:13PM 42.8294 -92.6328 297° West 496 571 34,000  Level Chicago Center
12:14PM 42.8919 -92.7922 298° West 487 560 34,000  Level Minneapolis Center
12:15PM 42.9506 -92.9456 298° West 473 544 34,000  Level Minneapolis Center
12:16PM 43.0075 -93.0992 297° West 464 534 34,000  Level Minneapolis Center
12:17PM 43.0625 -93.2464 297° West 447 514 34,000  Level Minneapolis Center
12:18PM 43.1081 -93.4008 292° West 446 513 34,000  Level Minneapolis Center
12:19PM 43.1392 -93.5919 283° West 435 501 34,000  Level Minneapolis Center
12:20PM 43.1678 -93.7519 284° West 437 503 34,000  Level Minneapolis Center
12:21PM 43.1961 -93.9128 284° West 440 506 34,000  Level Minneapolis Center
12:22PM 43.2244 -94.0769 283° West 446 513 34,000  Level Minneapolis Center
12:23PM 43.2547 -94.2550 283° West 446 513 34,000  Level Minneapolis Center
12:24PM 43.2822 -94.4181 283° West 442 509 34,000  Level Minneapolis Center
12:26PM 43.3361 -94.7428 283° West 438 504 34,000  Level Minneapolis Center
12:27PM 43.3678 -94.9400 283° West 442 509 34,000  Level Minneapolis Center
12:28PM 43.3944 -95.1019 283° West 437 503 34,000  Level Minneapolis Center
12:29PM 43.4214 -95.2697 283° West 447 514 34,000  Level Minneapolis Center
12:30PM 43.4475 -95.4400 282° West 454 522 34,000  Level Minneapolis Center
12:31PM 43.4742 -95.6086 282° West 453 521 34,000  Level Minneapolis Center
12:32PM 43.4997 -95.7794 282° West 455 524 34,000  Level Minneapolis Center
12:33PM 43.5264 -95.9522 282° West 460 529 34,000  Level Minneapolis Center
12:34PM 43.5586 -96.1617 282° West 464 534 34,000  Level Minneapolis Center
12:35PM 43.5844 -96.3367 282° West 465 535 34,000  Level Minneapolis Center
12:36PM 43.6103 -96.5128 282° West 467 537 34,000  Level Minneapolis Center
12:37PM 43.6356 -96.6883 281° West 466 536 34,000  Level Minneapolis Center
12:38PM 43.6575 -96.8625 280° West 462 532 34,000  Level Minneapolis Center
12:39PM 43.6694 -97.0386 275° West 460 529 34,000  Level Minneapolis Center
12:40PM 43.6842 -97.2158 277° West 464 534 34,000  Level Minneapolis Center
12:42PM 43.6975 -97.3917 276° West 462 532 34,000  Level Minneapolis Center
12:43PM 43.7128 -97.6025 276° West 461 531 34,000  Level Minneapolis Center
12:44PM 43.7244 -97.7797 275° West 462 532 34,000  Level Minneapolis Center
12:45PM 43.7378 -97.9547 276° West 460 529 34,000  Level Minneapolis Center
12:46PM 43.7494 -98.1314 275° West 462 532 34,000  Level Minneapolis Center
12:47PM 43.7614 -98.3072 275° West 460 529 34,000  Level Minneapolis Center
12:48PM 43.7728 -98.4833 275° West 462 532 34,000  Level Minneapolis Center
12:49PM 43.7861 -98.6897 275° West 459 528 34,000  Level Minneapolis Center
12:50PM 43.7978 -98.8656 275° West 459 528 34,000  Level Minneapolis Center
12:51PM 43.8078 -99.0433 275° West 461 531 34,000  Level Minneapolis Center
12:52PM 43.8194 -99.2200 275° West 460 529 34,000  Level Minneapolis Center
12:53PM 43.8297 -99.3953 275° West 458 527 34,000  Level Minneapolis Center
12:54PM 43.8397 -99.5706 275° West 456 525 34,000  Level Minneapolis Center
12:55PM 43.8503 -99.7867 274° West 460 529 34,000  Level Minneapolis Center
12:56PM 43.8597 -99.9697 274° West 467 537 34,000  Level Minneapolis Center
12:57PM 43.8686 -100.1483 274° West 467 537 34,000  Level Minneapolis Center
12:58PM 43.8769 -100.3306 274° West 469 540 34,000  Level Minneapolis Center
12:59PM 43.8850 -100.5108 274° West 469 540 34,000  Level Minneapolis Center
01:01PM 43.9000 -100.8406 274° West 471 542 34,000  Level Salt Lake Center
01:01PM 43.9031 -100.8767 277° West 474 545 34,000  Level Minneapolis Center
01:02PM 43.9103 -101.0589 273° West 473 544 34,000  Level Minneapolis Center
01:03PM 43.9200 -101.2783 274° West 474 545 34,000  Level Minneapolis Center
01:04PM 43.9256 -101.4594 273° West 473 544 34,000  Level Minneapolis Center
01:05PM 43.9353 -101.6836 274° West 481 554 34,000  Level Denver Center
01:06PM 43.9378 -101.8658 271° West 475 547 34,000  Level Denver Center
01:08PM 43.9419 -102.0508 272° West 476 548 34,000  Level Denver Center
01:09PM 43.9492 -102.2372 273° West 481 554 34,000  Level Denver Center
01:10PM 43.9572 -102.4275 273° West 488 562 34,000  Level Denver Center
01:11PM 43.9636 -102.6161 273° West 490 564 34,000  Level Denver Center
01:12PM 43.9731 -102.8256 274° West 493 567 34,000  Level Denver Center
01:13PM 43.9764 -103.0342 271° West 489 563 34,000  Level Denver Center
01:14PM 43.9822 -103.2164 273° West 492 566 34,000  Level Denver Center
01:15PM 43.9847 -103.4286 271° West 493 567 34,000  Level Denver Center
01:16PM 43.9883 -103.6108 272° West 496 571 34,000  Level Denver Center
01:17PM 43.9922 -103.8228 272° West 494 568 34,000  Level Denver Center
01:18PM 43.9950 -104.0069 271° West 497 572 34,000  Level Denver Center
01:19PM 43.9972 -104.2225 271° West 502 578 34,000  Level Denver Center
01:20PM 43.9981 -104.4047 270° West 497 572 34,000  Level Denver Center
01:21PM 43.9997 -104.6194 271° West 499 574 34,000  Level Denver Center
01:22PM 44.0019 -104.7689 271° West 491 565 34,000  Level Denver Center
01:23PM 44.0031 -105.0108 270° West 492 566 34,000  Level Denver Center
01:24PM 44.0036 -105.1914 270° West 491 565 34,000  Level Denver Center
01:25PM 44.0053 -105.4008 271° West 488 562 34,000  Level Denver Center
01:26PM 44.0044 -105.5811 270° West 489 563 34,000  Level Denver Center
01:27PM 44.0044 -105.7894 270° West 488 562 34,000  Level Denver Center
01:28PM 44.0044 -105.9675 270° West 485 558 34,000  Level Denver Center
01:29PM 44.0028 -106.1731 269° West 482 555 34,000  Level Denver Center
01:30PM 44.0008 -106.2336 267° West 481 554 34,000  Level Salt Lake Center
01:31PM 43.9997 -106.4106 270° West 478 550 34,000  Level Salt Lake Center
01:32PM 44.0067 -106.5858 273° West 480 552 34,000  Level Denver Center
01:33PM 44.0122 -106.7619 273° West 479 551 34,000  Level Denver Center
01:34PM 44.0206 -106.9708 273° West 479 551 34,000  Level Denver Center
01:35PM 44.0267 -107.1475 273° West 478 550 34,000  Level Denver Center
01:36PM 44.0328 -107.3256 273° West 481 554 34,000  Level Denver Center
01:37PM 44.0389 -107.5314 272° West 476 548 34,000  Level Denver Center
01:38PM 44.0447 -107.7081 273° West 476 548 34,000  Level Denver Center
01:39PM 44.0506 -107.9119 272° West 471 542 34,000  Level Denver Center
01:40PM 44.0550 -108.1178 272° West 471 542 34,000  Level Salt Lake Center
01:41PM 44.0600 -108.2919 272° West 470 541 34,000  Level Salt Lake Center
01:42PM 44.0653 -108.4978 272° West 473 544 34,000  Level Salt Lake Center
01:43PM 44.0689 -108.6719 272° West 472 543 34,000  Level Salt Lake Center
01:44PM 44.0736 -108.8756 272° West 471 542 34,000  Level Salt Lake Center
01:45PM 44.0772 -109.0508 272° West 471 542 34,000  Level Salt Lake Center
01:46PM 44.0797 -109.2553 271° West 473 544 34,000  Level Salt Lake Center
01:47PM 44.0822 -109.4297 271° West 472 543 34,000  Level Salt Lake Center
01:48PM 44.0847 -109.6319 271° West 472 543 34,000  Level Salt Lake Center
01:49PM 44.0869 -109.8081 271° West 474 545 34,000  Level Salt Lake Center
01:50PM 44.0894 -109.9839 271° West 475 547 34,000  Level Salt Lake Center
01:52PM 44.0879 -110.2028 270° West  Level FlightAware Approximate
01:52PM 44.0928 -110.3664 270° West 476 548 34,000  Level Salt Lake Center
01:53PM 44.0936 -110.5708 270° West 474 545 34,000  Level Salt Lake Center
01:54PM 44.0936 -110.7456 270° West 471 542 34,000  Level Salt Lake Center
01:55PM 44.0939 -110.9497 270° West 472 543 34,000  Level Salt Lake Center
01:56PM 44.0944 -111.1225 270° West 469 540 34,000  Level Salt Lake Center
01:57PM 44.0942 -111.3242 270° West 465 535 34,000  Level Salt Lake Center
01:58PM 44.0936 -111.4986 270° West 468 539 34,000  Level Salt Lake Center
02:00PM 44.0933 -111.6725 270° West 467 537 34,000  Level Salt Lake Center
02:01PM 44.0931 -111.8736 270° West 465 535 34,000  Level Salt Lake Center
02:02PM 44.0911 -112.0461 269° West 465 535 34,000  Level Salt Lake Center
02:03PM 44.0844 -112.2431 267° West 458 527 34,000  Level Salt Lake Center
02:04PM 44.0642 -112.4122 261° West 462 532 34,000  Level Salt Lake Center
02:05PM 44.0433 -112.6094 262° West 460 529 34,000  Level Salt Lake Center
02:06PM 44.0242 -112.7758 261° West 456 525 34,000  Level Salt Lake Center
02:07PM 44.0000 -112.9694 260° West 455 524 34,000  Level Salt Lake Center
02:08PM 43.9797 -113.1336 260° West 452 520 34,000  Level Salt Lake Center
02:09PM 43.9597 -113.2989 261° West 452 520 34,000  Level Salt Lake Center
02:10PM 43.9361 -113.4919 260° West 454 522 34,000  Level Salt Lake Center
02:11PM 43.9158 -113.6592 261° West 456 525 34,000  Level Salt Lake Center
02:12PM 43.8914 -113.8503 260° West 449 517 34,000 -600 Level Salt Lake Center
02:13PM 43.8697 -114.0167 260° West 402 463 32,800 -1,680 Descending Salt Lake Center
02:14PM 43.8517 -114.1617 260° West 399 459 30,600 -2,100 Descending Salt Lake Center
02:15PM 43.8336 -114.3017 260° West 388 447 28,500 -2,280 Descending Salt Lake Center
02:16PM 43.8128 -114.4619 260° West 380 437 26,000 -2,280 Descending Salt Lake Center
02:17PM 43.7956 -114.5933 260° West 363 418 23,900 -2,220 Descending Salt Lake Center
02:18PM 43.7753 -114.7411 259° West 349 402 21,500 -2,280 Descending Salt Lake Center
02:19PM 43.7578 -114.8647 259° West 343 395 19,300 -2,160 Descending Salt Lake Center
02:20PM 43.7381 -115.0061 259° West 335 386 17,100 -2,100 Descending Salt Lake Center
02:21PM 43.7225 -115.1239 260° West 328 377 15,000 -1,560 Descending Salt Lake Center
02:22PM 43.7039 -115.2578 259° West 318 366 13,900 -1,020 Descending Salt Lake Center
02:23PM 43.6875 -115.3739 259° West 321 369 13,000 -480 Descending Salt Lake Center
02:24PM 43.6672 -115.4986 257° West 311 358 13,000 -240 Level Salt Lake Center
02:25PM 43.6278 -115.6053 243° Southwest 304 350 12,600 -1,020 Descending Salt Lake Center
02:26PM 43.5925 -115.7075 245° Southwest 284 327 11,000 -1,500 Descending Salt Lake Center
02:27PM 43.5622 -115.8003 246° West 277 319 9,500 -1,500 Descending Salt Lake Center
02:28PM 43.5311 -115.8978 246° West 269 310 8,000 -1,380 Descending Salt Lake Center
02:29PM 43.5014 -115.9925 247° West 259 298 6,700 -1,260 Descending Salt Lake Center
02:31PM 43.5117 -116.0764 280° West 218 251 5,400 -1,260 Descending Salt Lake Center